Time;durP1;ratioP1;P1;durP2;ratioP2;P2;SDS_P1;SDS_P2;PMS_P1;PMS_P2;Temp;Humidity;BMP_temperature;BMP_pressure;BME280_temperature;BME280_humidity;BME280_pressure;Samples;Min_cycle;Max_cycle;Signal;HPM_P1;HPM_P2
2023/07/29 00:02:44;;;;;;;2.40;1.13;;;;;;;19.68;70.05;97276.53;10496931;28;20080;-63
2023/07/29 00:08:05;;;;;;;0.82;0.50;;;;;;;19.77;70.24;97273.91;10497790;28;20048;-64
2023/07/29 00:13:27;;;;;;;1.08;0.40;;;;;;;19.80;70.26;97273.28;10482710;28;20040;-64
2023/07/29 00:18:48;;;;;;;0.80;0.57;;;;;;;19.80;70.03;97267.63;10497675;28;20124;-64
2023/07/29 00:24:09;;;;;;;1.75;0.45;;;;;;;19.76;70.64;97266.81;10497635;28;20435;-64
2023/07/29 00:29:30;;;;;;;1.10;0.40;;;;;;;19.71;70.49;97257.50;10496469;28;20451;-64
2023/07/29 00:34:51;;;;;;;2.13;0.50;;;;;;;19.71;70.29;97261.06;10496575;28;20162;-64
2023/07/29 00:40:30;;;;;;;0.90;0.32;;;;;;;19.65;70.82;97260.91;10482528;28;20151;-64
2023/07/29 00:45:50;;;;;;;0.80;0.50;;;;;;;19.57;70.98;97257.88;10496185;28;20494;-64
2023/07/29 00:51:11;;;;;;;1.02;0.40;;;;;;;19.51;71.35;97249.22;10496198;28;20095;-64
2023/07/29 00:56:32;;;;;;;0.60;0.30;;;;;;;19.47;71.83;97249.09;10482634;28;20538;-64
2023/07/29 01:01:54;;;;;;;0.70;0.37;;;;;;;19.47;71.76;97268.91;10490162;28;20123;-64
2023/07/29 01:07:21;;;;;;;1.50;0.50;;;;;;;19.40;72.56;97265.22;10503371;28;20040;-64
2023/07/29 01:12:58;;;;;;;1.27;0.30;;;;;;;19.39;72.56;97271.53;10489670;28;20479;-64
2023/07/29 01:18:22;;;;;;;1.60;0.52;;;;;;;19.34;72.69;97270.00;10503148;28;20132;-64
2023/07/29 01:23:44;;;;;;;1.17;0.40;;;;;;;19.33;73.41;97271.38;10489360;28;20115;-64
2023/07/29 01:29:04;;;;;;;0.68;0.30;;;;;;;19.28;73.77;97262.06;10502820;28;20447;-64
2023/07/29 01:34:31;;;;;;;0.60;0.40;;;;;;;19.22;73.58;97261.94;10502592;28;20115;-64
2023/07/29 01:39:54;;;;;;;0.60;0.40;;;;;;;19.16;73.73;97262.47;10475008;28;20120;-64
2023/07/29 01:45:15;;;;;;;0.90;0.40;;;;;;;19.11;73.78;97260.22;10488339;28;20044;-64
2023/07/29 01:50:36;;;;;;;0.40;0.30;;;;;;;19.03;74.20;97265.66;10501785;28;20119;-64
2023/07/29 01:55:57;;;;;;;0.68;0.30;;;;;;;18.95;74.04;97265.44;10501911;28;20451;-64
2023/07/29 02:01:19;;;;;;;1.60;0.32;;;;;;;18.91;74.82;97265.31;10501102;28;20135;-64
2023/07/29 02:06:40;;;;;;;0.75;0.40;;;;;;;18.85;75.00;97263.06;10501144;28;20475;-65
2023/07/29 02:12:01;;;;;;;1.27;0.30;;;;;;;18.83;75.04;97265.84;10500489;28;20498;-64
2023/07/29 02:17:30;;;;;;;0.80;0.32;;;;;;;18.80;75.65;97261.47;10501892;28;20068;-64
2023/07/29 02:22:51;;;;;;;0.68;0.32;;;;;;;18.76;75.92;97261.38;10486653;28;20048;-64
2023/07/29 02:28:12;;;;;;;0.50;0.30;;;;;;;18.74;75.53;97255.69;10500415;28;20064;-66
2023/07/29 02:33:32;;;;;;;0.60;0.40;;;;;;;18.59;75.95;97260.19;10501338;28;20557;-63
2023/07/29 02:38:53;;;;;;;1.85;0.40;;;;;;;18.50;76.79;97247.91;10500180;28;20128;-66
2023/07/29 02:44:14;;;;;;;0.50;0.30;;;;;;;18.43;77.15;97248.41;10500032;28;20304;-66
2023/07/29 02:49:34;;;;;;;0.50;0.30;;;;;;;18.40;77.32;97247.63;10500829;28;20455;-66
2023/07/29 02:54:55;;;;;;;0.70;0.40;;;;;;;18.40;77.28;97256.09;10485631;28;20033;-66
2023/07/29 03:00:16;;;;;;;0.47;0.20;;;;;;;18.39;77.92;97254.66;10501004;28;20124;-66
2023/07/29 03:05:38;;;;;;;2.05;0.30;;;;;;;18.41;77.90;97265.31;10499159;28;20073;-66
2023/07/29 03:10:59;;;;;;;1.20;0.38;;;;;;;18.46;77.87;97270.41;10498982;28;20076;-66
2023/07/29 03:16:19;;;;;;;0.65;0.20;;;;;;;18.50;77.65;97272.63;10498965;28;20048;-66
2023/07/29 03:21:46;;;;;;;0.75;0.32;;;;;;;18.47;78.25;97277.50;10497352;28;20072;-66
2023/07/29 03:27:07;;;;;;;0.45;0.20;;;;;;;18.49;78.04;97277.56;10499363;28;20528;-66
2023/07/29 03:32:28;;;;;;;0.80;0.22;;;;;;;18.57;78.35;97277.06;10484061;28;20116;-66
2023/07/29 03:37:49;;;;;;;0.73;0.30;;;;;;;18.56;78.21;97278.47;10498017;28;20044;-65
2023/07/29 03:43:10;;;;;;;0.47;0.20;;;;;;;18.60;78.44;97273.63;10497567;28;20075;-65
2023/07/29 03:48:31;;;;;;;0.73;0.30;;;;;;;18.61;78.01;97265.88;10483750;28;20116;-65
2023/07/29 03:53:52;;;;;;;1.63;0.38;;;;;;;18.60;78.49;97262.34;10483744;28;20263;-66
2023/07/29 03:59:13;;;;;;;0.68;0.30;;;;;;;18.60;78.46;97270.81;10497223;28;20141;-66
2023/07/29 04:04:33;;;;;;;0.88;0.32;;;;;;;18.62;78.34;97266.59;10496951;28;20557;-66
2023/07/29 04:09:55;;;;;;;1.30;0.55;;;;;;;18.67;78.10;97271.03;10469129;28;20497;-66
2023/07/29 04:15:15;;;;;;;0.95;0.30;;;;;;;18.65;78.09;97276.63;10483071;28;20538;-66
2023/07/29 04:20:36;;;;;;;1.58;0.30;;;;;;;18.64;78.10;97272.34;10496545;28;20116;-66
2023/07/29 04:25:57;;;;;;;1.27;0.40;;;;;;;18.59;78.26;97286.34;10497827;28;20124;-67
2023/07/29 04:31:18;;;;;;;1.02;0.40;;;;;;;18.62;78.42;97281.44;10496982;28;20166;-66
2023/07/29 04:36:39;;;;;;;0.60;0.30;;;;;;;18.70;78.46;97281.00;10505989;28;20067;-66
2023/07/29 04:42:00;;;;;;;1.10;0.32;;;;;;;18.75;78.06;97294.59;10491030;28;20136;-66
2023/07/29 04:47:21;;;;;;;0.93;0.35;;;;;;;18.84;78.13;97295.53;10505639;28;20538;-66
2023/07/29 04:52:44;;;;;;;1.93;0.53;;;;;;;18.89;77.81;97297.09;10504412;28;20120;-64
2023/07/29 04:58:04;;;;;;;1.27;0.50;;;;;;;18.93;78.15;97291.56;10505176;28;20166;-66
2023/07/29 05:03:26;;;;;;;1.58;0.30;;;;;;;19.03;77.78;97294.66;10504791;28;20516;-64
2023/07/29 05:08:46;;;;;;;1.10;0.38;;;;;;;19.34;77.42;97293.34;10489869;28;20067;-64
2023/07/29 05:14:09;;;;;;;1.00;0.40;;;;;;;19.62;76.67;97287.00;10503582;28;20076;-64
2023/07/29 05:19:30;;;;;;;1.25;0.30;;;;;;;20.20;75.37;97295.47;10489723;28;20417;-64
2023/07/29 05:24:51;;;;;;;0.88;0.40;;;;;;;20.48;74.84;97301.06;10504013;28;20067;-64
2023/07/29 05:30:11;;;;;;;0.65;0.30;;;;;;;21.05;72.38;97290.88;10502912;28;20120;-64
2023/07/29 05:35:32;;;;;;;0.70;0.30;;;;;;;21.65;70.19;97287.72;10502700;28;20115;-64
2023/07/29 05:40:53;;;;;;;2.67;0.40;;;;;;;22.57;67.40;97284.84;10502491;28;20123;-64
2023/07/29 05:46:14;;;;;;;1.38;0.40;;;;;;;23.26;64.83;97284.97;10501957;28;20071;-64
2023/07/29 05:51:35;;;;;;;0.55;0.30;;;;;;;23.70;63.11;97290.41;10502014;28;20520;-64
2023/07/29 05:56:55;;;;;;;0.85;0.40;;;;;;;24.32;60.84;97288.00;10488102;28;20139;-64
2023/07/29 06:02:16;;;;;;;0.70;0.40;;;;;;;25.03;56.59;97294.09;10502347;28;20166;-64
2023/07/29 06:07:43;;;;;;;0.80;0.43;;;;;;;25.09;56.91;97302.66;10501686;28;20094;-64
2023/07/29 06:13:05;;;;;;;0.82;0.40;;;;;;;25.26;55.48;97292.72;10501335;28;20187;-65
2023/07/29 06:18:26;;;;;;;0.43;0.30;;;;;;;26.01;54.13;97294.97;10501099;28;20166;-66
2023/07/29 06:23:48;;;;;;;0.60;0.30;;;;;;;26.45;51.38;97288.50;10500906;28;20119;-66
2023/07/29 06:29:08;;;;;;;0.55;0.40;;;;;;;26.84;49.84;97291.25;10501875;28;20112;-66
2023/07/29 06:34:29;;;;;;;0.93;0.30;;;;;;;26.95;49.23;97277.59;10501575;28;20505;-67
2023/07/29 06:39:50;;;;;;;0.57;0.30;;;;;;;27.44;47.13;97285.97;10500068;28;20045;-66
2023/07/29 06:45:11;;;;;;;0.80;0.47;;;;;;;27.57;46.79;97287.28;10501200;28;20372;-67
2023/07/29 06:50:32;;;;;;;2.07;0.40;;;;;;;28.12;45.28;97284.72;10500542;28;20102;-66
2023/07/29 06:55:53;;;;;;;0.73;0.32;;;;;;;29.11;43.47;97293.00;10500397;28;20040;-66
2023/07/29 07:01:14;;;;;;;2.13;0.47;;;;;;;28.49;42.76;97293.00;10499924;28;20045;-66
2023/07/29 07:06:35;;;;;;;1.00;0.40;;;;;;;27.18;44.91;97299.00;10498923;28;20047;-66
2023/07/29 07:11:57;;;;;;;0.50;0.22;;;;;;;26.62;46.02;97289.16;10498705;28;20048;-66
2023/07/29 07:17:19;;;;;;;1.50;0.40;;;;;;;26.04;46.97;97278.53;10499550;28;20478;-66
2023/07/29 07:22:40;;;;;;;2.77;0.40;;;;;;;26.44;47.80;97281.38;10499369;28;20052;-67
2023/07/29 07:28:01;;;;;;;1.10;0.40;;;;;;;29.13;45.50;97285.06;10498951;28;20079;-67
2023/07/29 07:33:22;;;;;;;0.60;0.30;;;;;;;30.08;41.01;97279.38;10498770;28;20048;-66
2023/07/29 07:38:44;;;;;;;0.75;0.40;;;;;;;28.67;41.50;97277.75;10498229;28;20044;-66
2023/07/29 07:44:05;;;;;;;1.67;0.40;;;;;;;27.00;43.69;97279.00;10497467;28;20147;-67
2023/07/29 07:49:26;;;;;;;0.73;0.35;;;;;;;26.62;45.81;97260.53;10497381;28;20041;-67
2023/07/29 07:54:52;;;;;;;1.33;0.45;;;;;;;29.89;42.04;97255.94;10498255;28;20494;-67
2023/07/29 08:00:15;;;;;;;1.10;0.47;;;;;;;33.36;36.03;97255.06;10498280;28;20559;-67
2023/07/29 08:05:36;;;;;;;0.73;0.20;;;;;;;34.04;34.07;97253.63;10498081;28;20057;-67
2023/07/29 08:10:58;;;;;;;;;;;;;;;31.27;34.02;97255.50;10498247;28;20479;-66
2023/07/29 08:16:19;;;;;;;0.43;0.20;;;;;;;32.18;33.80;97238.84;10497819;28;20409;-67
2023/07/29 08:21:41;;;;;;;0.40;0.20;;;;;;;34.27;31.13;97245.59;10497709;28;20600;-67
2023/07/29 08:27:03;;;;;;;1.10;0.28;;;;;;;32.00;32.53;97236.44;10497643;28;20044;-67
2023/07/29 08:32:24;;;;;;;;;;;;;;;31.48;32.97;97238.44;10497772;28;20050;-67
2023/07/29 08:37:45;;;;;;;1.02;0.20;;;;;;;31.17;35.05;97235.50;10497505;28;20027;-67
2023/07/29 08:43:06;;;;;;;;;;;;;;;31.97;33.49;97237.97;10497660;28;20052;-67
2023/07/29 08:48:39;;;;;;;0.88;0.25;;;;;;;34.02;31.08;97242.81;10497253;28;19920;-67
2023/07/29 08:54:01;;;;;;;0.80;0.50;;;;;;;35.07;29.38;97234.03;10496881;28;20072;-67
2023/07/29 08:59:21;;;;;;;0.85;0.50;;;;;;;35.25;28.74;97236.94;10482655;28;20036;-67
2023/07/29 09:04:42;;;;;;;1.25;0.30;;;;;;;32.70;30.51;97247.56;10496016;28;20056;-67
2023/07/29 09:10:04;;;;;;;1.60;0.30;;;;;;;30.45;34.24;97239.84;10495917;28;20064;-67
2023/07/29 09:15:32;;;;;;;0.70;0.20;;;;;;;29.59;35.96;97234.84;10495966;28;20083;-67
2023/07/29 09:20:53;;;;;;;0.65;0.30;;;;;;;30.52;35.56;97248.38;10502124;28;20043;-67
2023/07/29 09:26:14;;;;;;;1.08;0.30;;;;;;;32.35;33.95;97244.22;10504097;28;20098;-67
2023/07/29 09:31:35;;;;;;;0.50;0.40;;;;;;;35.29;29.37;97241.88;10475199;28;20048;-67
2023/07/29 09:36:56;;;;;;;0.63;0.40;;;;;;;31.89;30.86;97244.66;10502742;28;20056;-66
2023/07/29 09:42:19;;;;;;;0.68;0.30;;;;;;;31.69;32.75;97239.34;10502644;28;20048;-66
2023/07/29 09:47:39;;;;;;;0.70;0.35;;;;;;;31.01;33.01;97237.28;10502184;28;20120;-66
2023/07/29 09:53:03;;;;;;;1.67;0.60;;;;;;;30.24;34.98;97235.94;10488581;28;20401;-66
2023/07/29 09:58:27;;;;;;;1.17;0.30;;;;;;;30.72;34.46;97227.81;10502245;28;20075;-66
2023/07/29 10:03:49;;;;;;;0.40;0.22;;;;;;;31.10;33.41;97240.00;10502139;28;20118;-66
2023/07/29 10:09:11;;;;;;;1.20;0.30;;;;;;;30.01;34.98;97234.88;10501466;28;20052;-65
2023/07/29 10:14:32;;;;;;;1.15;0.28;;;;;;;30.91;34.77;97228.16;10500973;28;20302;-66
2023/07/29 10:19:53;;;;;;;0.63;0.30;;;;;;;31.52;33.49;97215.97;10502441;28;20044;-66
2023/07/29 10:25:20;;;;;;;1.70;0.28;;;;;;;33.27;32.29;97201.81;10486895;28;20044;-69
2023/07/29 10:30:41;;;;;;;0.82;0.30;;;;;;;32.90;31.03;97222.47;10500916;28;20044;-66
2023/07/29 10:36:03;;;;;;;0.95;0.30;;;;;;;34.28;30.07;97200.66;10500482;28;20115;-69
2023/07/29 10:41:23;;;;;;;1.73;0.20;;;;;;;35.24;28.85;97188.41;10500464;28;20044;-69
2023/07/29 10:46:44;;;;;;;;;;;;;;;34.16;28.53;97201.06;10486347;28;20105;-68
2023/07/29 10:52:06;;;;;;;0.60;0.30;;;;;;;32.02;30.86;97190.19;10501001;28;20435;-68
2023/07/29 10:57:32;;;;;;;0.50;0.20;;;;;;;29.96;33.19;97179.59;10499085;28;20530;-68
2023/07/29 11:03:03;;;;;;;1.35;0.40;;;;;;;28.69;35.42;97195.16;10500049;28;20433;-68
2023/07/29 11:08:31;;;;;;;1.70;0.20;;;;;;;27.73;37.89;97215.53;10499708;28;20064;-68
2023/07/29 11:13:52;;;;;;;3.75;0.30;;;;;;;26.06;41.92;97247.81;10500353;28;20044;-64
2023/07/29 11:19:14;;;;;;;6.15;0.50;;;;;;;24.20;46.97;97252.28;10484382;28;20067;-65
2023/07/29 11:24:34;;;;;;;1.35;0.40;;;;;;;23.07;49.38;97235.69;10484820;28;20106;-65
2023/07/29 11:30:02;;;;;;;3.95;0.52;;;;;;;22.25;54.26;97233.97;10498734;28;20063;-65
2023/07/29 11:35:23;;;;;;;1.88;0.40;;;;;;;21.53;57.22;97231.44;10499189;28;20127;-65
2023/07/29 11:41:03;;;;;;;5.38;0.50;;;;;;;21.06;58.99;97232.72;10483698;28;20119;-65
2023/07/29 11:46:24;;;;;;;4.47;0.40;;;;;;;20.75;61.38;97217.97;10498789;28;20056;-64
2023/07/29 11:51:45;;;;;;;2.78;0.30;;;;;;;20.68;64.20;97213.59;10483367;28;20053;-65
2023/07/29 11:57:09;;;;;;;1.75;0.43;;;;;;;20.69;65.50;97206.50;10497148;28;20174;-65
2023/07/29 12:02:30;;;;;;;2.90;0.40;;;;;;;20.82;66.54;97196.81;10496845;28;20467;-65
2023/07/29 12:07:50;;;;;;;2.40;0.50;;;;;;;20.94;67.77;97184.25;10497098;28;20052;-65
2023/07/29 12:13:11;;;;;;;2.55;0.40;;;;;;;20.83;68.73;97186.91;10498139;28;20064;-65
2023/07/29 12:18:32;;;;;;;3.65;0.50;;;;;;;20.99;69.28;97188.63;10482803;28;20120;-65
2023/07/29 12:23:53;;;;;;;2.42;0.40;;;;;;;21.09;69.45;97181.00;10496485;28;20127;-65
2023/07/29 12:29:14;;;;;;;1.92;0.50;;;;;;;21.19;69.75;97185.41;10497490;28;20167;-65
2023/07/29 12:34:36;;;;;;;2.90;0.50;;;;;;;21.70;69.69;97178.44;10497098;28;20111;-65
2023/07/29 12:39:56;;;;;;;0.73;0.35;;;;;;;22.65;68.49;97186.81;10496167;28;20474;-64
2023/07/29 12:45:18;;;;;;;1.58;0.30;;;;;;;23.32;65.85;97184.66;10497167;28;20072;-65
2023/07/29 12:50:38;;;;;;;1.17;0.40;;;;;;;23.79;64.20;97180.06;10468362;28;20456;-65
2023/07/29 12:56:01;;;;;;;1.63;0.40;;;;;;;24.18;62.12;97168.88;10503438;28;20068;-65
2023/07/29 13:01:21;;;;;;;2.47;0.65;;;;;;;24.57;60.78;97166.22;10503723;28;20056;-65
2023/07/29 13:06:42;;;;;;;1.65;0.30;;;;;;;25.28;58.89;97158.50;10504659;28;20118;-65
2023/07/29 13:12:03;;;;;;;1.15;0.40;;;;;;;25.36;56.76;97140.66;10504468;28;20493;-65
2023/07/29 13:17:24;;;;;;;1.15;0.50;;;;;;;25.50;56.83;97145.66;10504447;28;20079;-65
2023/07/29 13:22:45;;;;;;;1.95;0.47;;;;;;;25.90;55.11;97137.03;10503206;28;20519;-65
2023/07/29 13:28:06;;;;;;;1.75;0.35;;;;;;;25.45;55.05;97122.06;10504057;28;20495;-64
2023/07/29 13:33:27;;;;;;;1.27;0.40;;;;;;;25.29;54.99;97102.81;10504131;28;20068;-65
2023/07/29 13:38:47;;;;;;;0.98;0.30;;;;;;;25.26;55.32;97109.94;10503527;28;20060;-65
2023/07/29 13:44:08;;;;;;;3.22;0.38;;;;;;;25.16;55.22;97124.22;10503407;28;20051;-65
2023/07/29 13:49:28;;;;;;;1.52;0.32;;;;;;;24.97;55.11;97117.78;10502009;28;20044;-65
2023/07/29 13:54:49;;;;;;;1.48;0.30;;;;;;;24.66;55.89;97114.16;10502894;28;20129;-65
2023/07/29 14:00:10;;;;;;;2.35;0.38;;;;;;;24.60;55.51;97102.72;10501586;28;20064;-65
2023/07/29 14:05:31;;;;;;;0.68;0.30;;;;;;;24.43;55.05;97102.00;10501168;28;20052;-65
2023/07/29 14:10:51;;;;;;;0.30;0.20;;;;;;;24.34;54.76;97097.69;10502437;28;20069;-65
2023/07/29 14:16:12;;;;;;;1.30;0.40;;;;;;;24.18;55.43;97089.75;10500967;28;20068;-65
2023/07/29 14:21:33;;;;;;;0.60;0.30;;;;;;;24.31;54.97;97096.22;10486875;28;20123;-64
2023/07/29 14:26:54;;;;;;;1.20;0.28;;;;;;;24.21;54.40;97088.34;10501531;28;20513;-65
2023/07/29 14:32:15;;;;;;;0.50;0.20;;;;;;;24.54;53.97;97082.75;10501379;28;20079;-65
2023/07/29 14:37:35;;;;;;;0.93;0.30;;;;;;;24.69;53.49;97086.34;10501288;28;20036;-65
2023/07/29 14:42:56;;;;;;;0.50;0.20;;;;;;;24.85;51.83;97069.25;10501111;28;20144;-65
2023/07/29 14:48:17;;;;;;;0.63;0.30;;;;;;;24.72;50.49;97082.09;10486604;28;20045;-65
2023/07/29 14:53:38;;;;;;;0.38;0.20;;;;;;;24.70;49.60;97076.34;10500773;28;20498;-65
2023/07/29 14:58:59;;;;;;;0.90;0.30;;;;;;;24.80;49.49;97076.34;10501178;28;20072;-65
2023/07/29 15:04:19;;;;;;;0.52;0.30;;;;;;;25.05;48.90;97080.69;10499189;28;20152;-65
2023/07/29 15:09:40;;;;;;;1.10;0.30;;;;;;;25.15;48.19;97062.84;10499360;28;20185;-65
2023/07/29 15:15:01;;;;;;;0.90;0.30;;;;;;;25.07;47.84;97066.41;10498700;28;20060;-65
2023/07/29 15:20:22;;;;;;;2.25;0.30;;;;;;;25.05;47.71;97057.84;10484978;28;20458;-65
2023/07/29 15:25:43;;;;;;;0.57;0.40;;;;;;;24.97;47.84;97057.09;10499814;28;20055;-65
2023/07/29 15:31:04;;;;;;;0.57;0.20;;;;;;;24.84;48.11;97057.13;10498671;28;20122;-65
2023/07/29 15:36:24;;;;;;;1.92;0.30;;;;;;;24.78;48.54;97054.25;10498739;28;20066;-65
2023/07/29 15:41:46;;;;;;;0.60;0.30;;;;;;;24.80;48.71;97065.69;10498786;28;20407;-65
2023/07/29 15:47:07;;;;;;;1.13;0.30;;;;;;;24.84;49.07;97040.00;10498618;28;20169;-65
2023/07/29 15:52:29;;;;;;;1.15;0.30;;;;;;;24.94;48.78;97067.09;10498201;28;20093;-65
2023/07/29 15:57:50;;;;;;;1.63;0.30;;;;;;;25.01;48.41;97042.84;10498699;28;20058;-65
2023/07/29 16:03:11;;;;;;;1.80;0.40;;;;;;;25.08;48.63;97050.00;10497554;28;20075;-65
2023/07/29 16:08:32;;;;;;;0.90;0.40;;;;;;;25.15;48.25;97050.72;10497872;28;20044;-65
2023/07/29 16:13:53;;;;;;;1.92;0.40;;;;;;;25.26;47.86;97037.84;10498420;28;20048;-65
2023/07/29 16:19:25;;;;;;;1.50;0.40;;;;;;;25.45;47.39;97033.50;10496587;28;20045;-65
2023/07/29 16:24:45;;;;;;;1.42;0.40;;;;;;;25.46;47.26;97039.94;10496692;28;20459;-65
2023/07/29 16:30:06;;;;;;;0.70;0.30;;;;;;;25.44;46.67;97042.81;10496861;28;20074;-65
2023/07/29 16:35:28;;;;;;;3.50;0.38;;;;;;;25.46;46.55;97040.66;10497246;28;20086;-65
2023/07/29 16:40:48;;;;;;;0.45;0.30;;;;;;;25.42;46.28;97057.81;10496091;28;20079;-65
2023/07/29 16:46:29;;;;;;;0.88;0.40;;;;;;;25.19;46.55;97051.44;10496104;28;20069;-66
2023/07/29 16:51:50;;;;;;;1.17;0.47;;;;;;;24.96;46.65;97056.41;10496934;28;20121;-65
2023/07/29 16:57:12;;;;;;;1.85;0.57;;;;;;;24.88;46.84;97052.81;10496771;28;20072;-65
2023/07/29 17:02:33;;;;;;;1.33;0.40;;;;;;;24.86;47.61;97059.25;10496882;28;20544;-65
2023/07/29 17:07:54;;;;;;;0.75;0.50;;;;;;;24.97;47.34;97051.41;10496724;28;20414;-65
2023/07/29 17:13:15;;;;;;;0.80;0.40;;;;;;;25.02;47.12;97050.00;10495481;28;20068;-65
2023/07/29 17:18:38;;;;;;;1.38;0.40;;;;;;;24.90;47.17;97052.81;10496979;28;20068;-65
2023/07/29 17:23:59;;;;;;;1.17;0.60;;;;;;;24.67;47.59;97069.94;10481535;28;20064;-65
2023/07/29 17:29:20;;;;;;;0.90;0.50;;;;;;;24.44;48.00;97080.59;10496832;28;20048;-65
2023/07/29 17:34:41;;;;;;;1.15;0.68;;;;;;;24.26;48.31;97077.66;10496060;28;20123;-65
2023/07/29 17:40:02;;;;;;;1.77;0.50;;;;;;;24.20;48.83;97121.13;10497093;28;20072;-65
2023/07/29 17:45:22;;;;;;;1.33;0.50;;;;;;;24.25;48.49;97125.44;10503511;28;20075;-65
2023/07/29 17:50:43;;;;;;;2.17;0.55;;;;;;;24.20;49.01;97134.66;10502765;28;20048;-65
2023/07/29 17:56:04;;;;;;;1.92;0.63;;;;;;;24.05;49.02;97131.06;10503013;28;20188;-65
2023/07/29 18:01:25;;;;;;;1.80;0.65;;;;;;;23.90;49.58;97135.94;10501339;28;20064;-65
2023/07/29 18:06:46;;;;;;;2.17;0.60;;;;;;;23.79;49.68;97148.00;10502657;28;20071;-65
2023/07/29 18:12:07;;;;;;;4.10;0.60;;;;;;;23.76;50.13;97155.81;10502729;28;20499;-65
2023/07/29 18:17:28;;;;;;;1.05;0.55;;;;;;;23.75;50.43;97162.94;10502294;28;20068;-65
2023/07/29 18:22:49;;;;;;;2.15;0.70;;;;;;;23.64;50.61;97152.88;10502690;28;20072;-65
2023/07/29 18:28:10;;;;;;;1.27;0.60;;;;;;;23.50;51.02;97156.31;10500738;28;20036;-65
2023/07/29 18:33:31;;;;;;;2.25;0.60;;;;;;;23.30;52.03;97164.72;10501621;28;20077;-65
2023/07/29 18:38:52;;;;;;;1.13;0.70;;;;;;;23.14;52.69;97163.16;10500236;28;20124;-65
2023/07/29 18:44:12;;;;;;;1.27;0.70;;;;;;;23.07;53.88;97178.03;10501127;28;20071;-65
2023/07/29 18:49:35;;;;;;;1.70;0.40;;;;;;;22.88;53.75;97211.28;10500635;28;20124;-65
2023/07/29 18:54:57;;;;;;;1.55;0.30;;;;;;;22.47;53.78;97207.22;10500320;28;20124;-65
2023/07/29 19:00:18;;;;;;;0.95;0.30;;;;;;;21.90;54.30;97204.31;10499238;28;20179;-65
2023/07/29 19:05:39;;;;;;;1.60;0.30;;;;;;;21.48;54.23;97226.38;10499828;28;20119;-65
2023/07/29 19:11:00;;;;;;;2.15;0.30;;;;;;;21.14;55.02;97230.03;10500565;28;20040;-65
2023/07/29 19:16:21;;;;;;;0.90;0.30;;;;;;;20.88;55.30;97226.72;10498437;28;20087;-65
2023/07/29 19:21:41;;;;;;;0.55;0.20;;;;;;;20.62;56.13;97236.13;10499598;28;20115;-65
2023/07/29 19:27:05;;;;;;;1.08;0.40;;;;;;;20.42;56.60;97233.59;10499260;28;20052;-65
2023/07/29 19:32:30;;;;;;;0.57;0.25;;;;;;;20.27;57.66;97237.53;10499104;28;20471;-65
2023/07/29 19:37:50;;;;;;;0.60;0.30;;;;;;;20.11;57.64;97249.22;10498200;28;20112;-65
2023/07/29 19:43:11;;;;;;;1.50;0.30;;;;;;;19.98;58.04;97241.84;10498810;28;20064;-65
2023/07/29 19:48:32;;;;;;;2.55;0.40;;;;;;;19.87;58.31;97243.00;10484219;28;20056;-65
2023/07/29 19:53:52;;;;;;;0.60;0.20;;;;;;;19.75;58.94;97246.25;10498834;28;20539;-65
2023/07/29 19:59:13;;;;;;;0.88;0.30;;;;;;;19.66;59.09;97253.13;10497393;28;20171;-65
2023/07/29 20:04:34;;;;;;;1.67;0.32;;;;;;;19.60;59.51;97250.16;10497273;28;20098;-65
2023/07/29 20:09:55;;;;;;;1.23;0.30;;;;;;;19.63;59.98;97258.03;10496907;28;20132;-65
2023/07/29 20:15:16;;;;;;;0.80;0.30;;;;;;;19.67;60.04;97252.44;10498503;28;20506;-65
2023/07/29 20:20:36;;;;;;;1.40;0.30;;;;;;;19.58;60.23;97256.47;10497591;28;20091;-64
2023/07/29 20:25:57;;;;;;;0.98;0.30;;;;;;;19.47;60.41;97232.13;10497585;28;20045;-65
2023/07/29 20:31:18;;;;;;;3.67;0.30;;;;;;;19.35;60.76;97234.66;10497459;28;20041;-64
2023/07/29 20:36:39;;;;;;;0.47;0.20;;;;;;;19.27;61.19;97242.94;10497404;28;20079;-64
2023/07/29 20:42:00;;;;;;;1.88;0.30;;;;;;;19.20;61.10;97244.88;10497679;28;20064;-64
2023/07/29 20:47:20;;;;;;;0.90;0.50;;;;;;;19.12;61.04;97245.41;10497373;28;20071;-64
2023/07/29 20:52:41;;;;;;;1.95;0.30;;;;;;;19.08;61.62;97256.59;10497309;28;20090;-64
2023/07/29 20:58:02;;;;;;;1.40;0.40;;;;;;;19.07;61.75;97260.81;10497066;28;20036;-65
2023/07/29 21:03:22;;;;;;;0.77;0.30;;;;;;;19.04;61.96;97259.34;10497175;28;20139;-65
2023/07/29 21:08:43;;;;;;;2.50;0.30;;;;;;;19.03;62.10;97257.91;10496236;28;20135;-65
2023/07/29 21:14:04;;;;;;;1.02;0.40;;;;;;;18.98;62.02;97247.84;10497212;28;20166;-65
2023/07/29 21:19:25;;;;;;;2.67;0.30;;;;;;;18.99;62.15;97269.09;10504546;28;20079;-65
2023/07/29 21:24:46;;;;;;;1.70;0.40;;;;;;;18.99;61.97;97254.22;10504276;28;20075;-65
2023/07/29 21:30:07;;;;;;;0.93;0.30;;;;;;;19.00;61.85;97259.22;10503443;28;20048;-65
2023/07/29 21:35:28;;;;;;;1.25;0.40;;;;;;;19.00;62.14;97264.88;10503071;28;20068;-64
2023/07/29 21:40:49;;;;;;;2.03;0.30;;;;;;;18.98;62.46;97267.66;10503963;28;20070;-64
2023/07/29 21:46:12;;;;;;;0.75;0.40;;;;;;;18.97;62.46;97274.69;10502481;28;20068;-64
2023/07/29 21:51:32;;;;;;;0.98;0.40;;;;;;;18.95;62.61;97285.94;10502541;28;20506;-65
2023/07/29 21:56:53;;;;;;;1.00;0.40;;;;;;;18.93;62.52;97283.06;10502121;28;20120;-64
2023/07/29 22:02:14;;;;;;;2.75;0.57;;;;;;;18.88;62.65;97279.41;10502908;28;20045;-65
2023/07/29 22:07:34;;;;;;;1.65;0.60;;;;;;;18.87;62.94;97282.91;10501716;28;20047;-65
2023/07/29 22:12:55;;;;;;;2.70;0.63;;;;;;;18.80;63.69;97284.09;10502518;28;20513;-64
2023/07/29 22:18:16;;;;;;;2.40;0.63;;;;;;;18.78;63.61;97281.94;10502531;28;20514;-64
2023/07/29 22:23:37;;;;;;;0.65;0.30;;;;;;;18.77;63.93;97291.81;10502028;28;20071;-64
2023/07/29 22:29:18;;;;;;;1.73;0.50;;;;;;;18.74;64.63;97272.66;10500078;28;20112;-65
2023/07/29 22:34:39;;;;;;;2.90;0.52;;;;;;;18.68;64.70;97273.19;10501297;28;20309;-64
2023/07/29 22:40:01;;;;;;;1.10;0.47;;;;;;;18.63;65.35;97282.91;10500462;28;20067;-64
2023/07/29 22:45:22;;;;;;;1.40;0.40;;;;;;;18.58;65.39;97287.72;10501219;28;20551;-65
2023/07/29 22:50:43;;;;;;;1.20;0.40;;;;;;;18.55;66.49;97289.06;10500933;28;20079;-65
2023/07/29 22:56:04;;;;;;;1.00;0.40;;;;;;;18.62;65.84;97292.75;10500688;28;20115;-65
2023/07/29 23:01:25;;;;;;;2.85;0.70;;;;;;;18.68;65.77;97300.72;10521596;22;20137;-65
2023/07/29 23:06:46;;;;;;;1.00;0.40;;;;;;;18.66;65.90;97295.03;10362332;28;20050;-64
2023/07/29 23:12:06;;;;;;;1.33;0.50;;;;;;;18.62;66.33;97298.41;10375526;28;20503;-65
2023/07/29 23:17:27;;;;;;;0.80;0.50;;;;;;;18.64;66.36;97306.25;10375748;28;20126;-64
2023/07/29 23:22:48;;;;;;;1.10;0.50;;;;;;;18.66;66.41;97303.50;10375163;28;20093;-65
2023/07/29 23:28:08;;;;;;;1.88;0.60;;;;;;;18.64;66.36;97301.31;10374939;28;20113;-65
2023/07/29 23:33:29;;;;;;;1.48;0.45;;;;;;;18.59;66.55;97300.47;10375529;28;20121;-64
2023/07/29 23:38:50;;;;;;;1.42;0.55;;;;;;;18.52;66.95;97298.84;10376027;28;20061;-64
2023/07/29 23:44:11;;;;;;;1.80;0.65;;;;;;;18.43;67.41;97299.25;10374335;28;20121;-64
2023/07/29 23:49:31;;;;;;;2.10;0.68;;;;;;;18.30;67.94;97303.84;10375417;28;20117;-64
2023/07/29 23:54:52;;;;;;;3.50;0.80;;;;;;;18.19;68.89;97304.91;10375017;28;20556;-65
